Time;durP1;ratioP1;P1;durP2;ratioP2;P2;SDS_P1;SDS_P2;PMS_P1;PMS_P2;Temp;Humidity;BMP_temperature;BMP_pressure;BME280_temperature;BME280_humidity;BME280_pressure;Samples;Min_cycle;Max_cycle;Signal;HPM_P1;HPM_P2
2021/03/09 00:00:06;;;;;;;72.05;45.25;;;;;;;4.61;76.19;102217.66;5032284;28;20025;-87
2021/03/09 00:02:33;;;;;;;72.95;43.55;;;;;;;5.34;75.50;102310.97;5031331;28;20028;-88
2021/03/09 00:05:00;;;;;;;71.00;42.22;;;;;;;5.58;74.64;102317.41;5032036;28;20026;-86
2021/03/09 00:07:27;;;;;;;79.60;46.78;;;;;;;5.06;74.18;102232.63;5032078;28;20108;-87
2021/03/09 00:09:54;;;;;;;82.88;47.55;;;;;;;5.67;74.29;102321.00;5041500;28;20021;-88
2021/03/09 00:12:21;;;;;;;79.28;46.95;;;;;;;4.81;73.83;102187.94;5050950;28;20382;-88
2021/03/09 00:14:48;;;;;;;81.03;49.95;;;;;;;4.48;74.14;102164.22;5051962;28;20095;-87
2021/03/09 00:17:15;;;;;;;77.28;48.15;;;;;;;5.33;74.38;102320.25;5051299;28;20086;-87
2021/03/09 00:19:42;;;;;;;91.55;52.35;;;;;;;4.28;74.23;102141.75;5052148;28;20048;-88
2021/03/09 00:22:09;;;;;;;84.97;52.88;;;;;;;4.74;73.11;102174.06;5051821;28;20028;-87
2021/03/09 00:24:36;;;;;;;85.40;52.65;;;;;;;4.66;71.98;102144.75;5054414;28;20087;-88
2021/03/09 00:27:03;;;;;;;82.10;50.60;;;;;;;4.85;71.45;102171.97;5054414;28;20021;-87
2021/03/09 00:29:30;;;;;;;84.20;50.05;;;;;;;5.36;72.54;102272.34;5054332;28;20025;-87
2021/03/09 00:31:57;;;;;;;92.43;49.80;;;;;;;4.65;71.83;102169.66;5055445;28;20051;-87
2021/03/09 00:34:24;;;;;;;71.40;45.90;;;;;;;4.61;70.97;102129.88;5050900;28;20430;-86
2021/03/09 00:36:51;;;;;;;85.70;50.75;;;;;;;5.64;71.47;102256.25;5050722;28;20036;-85
2021/03/09 00:39:18;;;;;;;84.28;50.40;;;;;;;5.17;71.76;102149.03;5051959;28;20032;-88
2021/03/09 00:41:45;;;;;;;77.20;49.90;;;;;;;5.70;71.57;102217.06;5050554;28;20059;-87
2021/03/09 00:44:12;;;;;;;72.75;47.35;;;;;;;5.89;70.92;102231.38;5051245;28;20028;-86
2021/03/09 00:46:39;;;;;;;74.65;47.28;;;;;;;5.13;71.67;102135.84;5049822;28;20025;-87
2021/03/09 00:49:06;;;;;;;83.55;48.95;;;;;;;5.45;72.25;102213.59;5050400;28;20029;-87
2021/03/09 00:51:33;;;;;;;86.07;49.75;;;;;;;5.83;72.76;102318.16;5050905;28;20032;-87
2021/03/09 00:54:00;;;;;;;71.05;49.20;;;;;;;4.47;72.42;102079.34;5050695;28;20020;-86
2021/03/09 00:56:27;;;;;;;73.10;51.80;;;;;;;6.04;72.23;102311.22;5050874;28;20028;-86
2021/03/09 00:58:54;;;;;;;78.45;50.00;;;;;;;6.13;71.41;102323.03;5052400;28;20025;-88
2021/03/09 01:01:21;;;;;;;72.65;49.20;;;;;;;5.51;70.76;102215.63;5050934;28;20543;-87
2021/03/09 01:03:48;;;;;;;84.07;49.25;;;;;;;4.86;69.87;102083.13;5051362;28;20032;-87
2021/03/09 01:06:15;;;;;;;70.22;46.95;;;;;;;6.03;69.19;102273.75;5052776;28;20025;-87
2021/03/09 01:08:42;;;;;;;69.75;45.45;;;;;;;5.94;69.99;102281.16;5054984;28;20148;-84
2021/03/09 01:11:09;;;;;;;75.45;46.28;;;;;;;5.46;71.00;102231.78;5062435;28;20120;-86
2021/03/09 01:13:36;;;;;;;74.95;44.38;;;;;;;5.69;71.55;102263.94;5060660;28;20037;-87
2021/03/09 01:16:03;;;;;;;61.55;38.13;;;;;;;6.22;71.40;102326.56;5058930;28;20025;-85
2021/03/09 01:18:30;;;;;;;72.40;41.47;;;;;;;4.48;70.05;102010.63;5058543;28;20083;-86
2021/03/09 01:20:58;;;;;;;61.28;39.13;;;;;;;5.15;70.82;102134.63;5060685;28;20059;-87
2021/03/09 01:23:25;;;;;;;56.63;37.10;;;;;;;4.72;72.02;102125.88;5051507;28;20021;-86
2021/03/09 01:25:52;;;;;;;59.40;39.30;;;;;;;3.95;73.61;102033.06;5051868;28;20029;-87
2021/03/09 01:28:19;;;;;;;63.55;37.95;;;;;;;5.36;74.03;102288.84;5052515;28;20025;-87
2021/03/09 01:30:46;;;;;;;62.92;39.67;;;;;;;5.48;73.86;102301.16;5053912;28;20032;-86
2021/03/09 01:33:13;;;;;;;69.72;37.33;;;;;;;5.56;74.63;102306.63;5056379;28;20535;-87
2021/03/09 01:35:40;;;;;;;66.15;39.97;;;;;;;5.43;73.32;102223.91;5056947;28;20021;-89
2021/03/09 01:38:07;;;;;;;64.20;37.67;;;;;;;5.67;72.26;102291.63;5056910;28;20025;-86
2021/03/09 01:40:35;;;;;;;63.67;38.92;;;;;;;4.88;73.98;102201.81;5072647;28;20115;-87
2021/03/09 01:43:03;;;;;;;62.67;36.28;;;;;;;4.22;73.18;102093.97;5075267;28;20031;-87
2021/03/09 01:45:30;;;;;;;66.82;37.13;;;;;;;4.94;73.42;102206.63;5069610;28;20029;-85
2021/03/09 01:48:03;;;;;;;57.95;35.97;;;;;;;5.30;73.30;102247.31;5054310;28;20029;-88
2021/03/09 01:50:33;;;;;;;56.17;36.38;;;;;;;5.50;72.45;102235.91;5054243;28;20540;-89
2021/03/09 01:53:07;;;;;;;66.45;35.83;;;;;;;6.01;72.37;102317.06;5054667;28;20062;-87
2021/03/09 01:55:36;;;;;;;57.08;33.97;;;;;;;5.07;69.69;102132.75;5049117;28;20028;-86
2021/03/09 01:58:10;;;;;;;50.15;32.20;;;;;;;5.49;69.96;102187.47;5053035;28;20025;-87
2021/03/09 02:00:41;;;;;;;57.10;33.35;;;;;;;4.96;71.02;102127.69;5051813;28;20029;-88
2021/03/09 02:03:09;;;;;;;60.45;33.65;;;;;;;5.73;70.66;102215.84;5052766;28;20021;-87
2021/03/09 02:05:36;;;;;;;50.22;33.08;;;;;;;5.89;69.55;102286.38;5048965;28;20033;-87
2021/03/09 02:08:04;;;;;;;54.65;34.20;;;;;;;5.54;70.28;102262.00;5051344;28;20036;-86
2021/03/09 02:10:32;;;;;;;61.60;34.45;;;;;;;5.18;70.60;102153.47;5052139;28;20114;-87
2021/03/09 02:13:20;;;;;;;53.95;33.10;;;;;;;6.13;69.57;102268.88;5051776;28;20109;-86
2021/03/09 02:16:08;;;;;;;56.67;32.55;;;;;;;5.98;69.43;102273.41;5066275;28;20017;-88
2021/03/09 02:19:29;;;;;;;57.80;34.65;;;;;;;6.02;67.52;102259.13;5051687;28;20116;-88
2021/03/09 02:22:28;;;;;;;53.30;31.83;;;;;;;6.70;64.55;102260.31;4995730;28;20057;-88
2021/03/09 02:25:36;;;;;;;49.03;31.48;;;;;;;6.88;62.78;102240.69;5052130;28;20094;-86
2021/03/09 02:28:18;;;;;;;53.53;33.10;;;;;;;6.91;62.68;102262.38;5007308;28;20044;-87
2021/03/09 02:30:47;;;;;;;54.40;32.28;;;;;;;6.32;62.45;102222.66;5055456;28;20029;-89
2021/03/09 02:33:22;;;;;;;54.92;32.42;;;;;;;5.58;63.07;102053.66;5054458;28;20025;-87
2021/03/09 02:36:09;;;;;;;60.58;32.60;;;;;;;6.93;60.26;102252.00;5053830;28;20021;-87
2021/03/09 02:38:51;;;;;;;55.95;30.08;;;;;;;7.21;59.64;102254.09;5054262;28;20370;-85
2021/03/09 02:41:21;;;;;;;50.25;29.15;;;;;;;7.39;59.22;102270.22;5052948;28;20029;-85
2021/03/09 02:43:51;;;;;;;54.13;29.48;;;;;;;7.75;57.44;102252.03;5053887;28;20025;-85
2021/03/09 02:46:20;;;;;;;53.80;31.63;;;;;;;6.86;56.11;102165.69;5053930;28;20029;-85
2021/03/09 02:48:49;;;;;;;43.25;27.63;;;;;;;6.26;55.54;102130.75;5054310;28;20033;-88
2021/03/09 02:51:17;;;;;;;48.83;25.10;;;;;;;6.31;56.08;102185.19;5054267;28;20028;-86
2021/03/09 02:53:49;;;;;;;50.55;29.27;;;;;;;6.87;55.40;102210.59;5055550;28;20017;-86
2021/03/09 02:56:18;;;;;;;59.00;30.13;;;;;;;5.42;56.16;102049.16;5053925;28;20032;-87
2021/03/09 02:58:49;;;;;;;51.88;29.75;;;;;;;6.83;54.89;102204.59;5054013;28;20093;-88
2021/03/09 03:01:18;;;;;;;53.28;27.67;;;;;;;7.44;53.67;102252.28;5053224;28;20033;-87
2021/03/09 03:03:46;;;;;;;46.78;26.67;;;;;;;6.60;54.69;102197.28;5053470;28;20115;-86
2021/03/09 03:06:16;;;;;;;50.75;29.42;;;;;;;7.48;54.39;102254.44;5053733;28;20064;-87
2021/03/09 03:08:44;;;;;;;47.08;29.55;;;;;;;6.73;55.49;102165.50;5052938;28;20477;-87
2021/03/09 03:11:13;;;;;;;55.47;30.17;;;;;;;6.44;54.75;102097.34;5052676;28;20039;-86
2021/03/09 03:13:41;;;;;;;47.30;29.23;;;;;;;7.61;54.37;102242.72;5053242;28;20067;-87
2021/03/09 03:16:13;;;;;;;44.67;28.20;;;;;;;6.04;55.23;102076.66;5054751;28;20116;-87
2021/03/09 03:18:43;;;;;;;44.95;27.15;;;;;;;7.41;54.34;102208.59;5052733;28;21051;-87
2021/03/09 03:21:14;;;;;;;43.70;26.67;;;;;;;6.56;54.03;102107.91;5052694;28;20037;-86
2021/03/09 03:23:43;;;;;;;56.33;29.10;;;;;;;6.83;54.69;102188.94;5053450;28;20493;-87
2021/03/09 03:26:11;;;;;;;49.25;29.42;;;;;;;6.10;54.84;102040.13;5054295;28;20056;-87
2021/03/09 03:28:43;;;;;;;51.17;28.90;;;;;;;7.23;54.11;102221.72;5052373;28;20036;-87
2021/03/09 03:31:11;;;;;;;40.95;28.98;;;;;;;7.63;53.24;102226.88;5060791;28;20025;-87
2021/03/09 03:33:38;;;;;;;46.08;28.30;;;;;;;7.57;54.02;102233.16;5061436;28;20079;-86
2021/03/09 03:36:06;;;;;;;52.22;29.52;;;;;;;6.62;54.83;102118.16;5052744;28;20021;-87
2021/03/09 03:38:34;;;;;;;46.78;29.60;;;;;;;7.70;53.69;102229.69;5054109;28;20052;-86
2021/03/09 03:41:03;;;;;;;43.65;24.23;;;;;;;7.01;54.02;102195.13;5052781;28;20481;-86
2021/03/09 03:43:31;;;;;;;51.47;30.58;;;;;;;6.89;54.06;102159.78;5072503;28;20035;-87
2021/03/09 03:45:58;;;;;;;52.38;27.42;;;;;;;5.64;53.79;101988.88;5068218;28;20032;-84
2021/03/09 03:48:26;;;;;;;48.20;28.33;;;;;;;7.46;53.28;102206.94;5052259;28;20025;-87
2021/03/09 03:50:55;;;;;;;52.65;29.55;;;;;;;7.46;52.40;102186.78;5051938;28;20052;-87
2021/03/09 03:53:50;;;;;;;47.60;26.83;;;;;;;7.63;51.49;102214.97;5052336;28;20126;-84
2021/03/09 03:56:52;;;;;;;52.95;28.05;;;;;;;6.76;51.72;102066.88;5031682;28;20045;-85
2021/03/09 03:59:26;;;;;;;44.58;26.00;;;;;;;7.57;51.91;102202.84;5050977;28;20390;-88
2021/03/09 04:01:55;;;;;;;46.88;26.17;;;;;;;7.18;51.77;102130.50;5051824;28;20025;-86
2021/03/09 04:04:25;;;;;;;40.35;25.15;;;;;;;7.59;50.79;102137.34;5055455;28;20028;-85
2021/03/09 04:06:54;;;;;;;43.38;25.40;;;;;;;6.37;50.59;101960.75;5057823;28;20048;-87
2021/03/09 04:09:24;;;;;;;40.33;26.33;;;;;;;6.72;52.01;102079.34;5056238;28;20097;-86
2021/03/09 04:11:54;;;;;;;46.75;25.98;;;;;;;6.93;51.40;102041.88;5053640;28;20053;-88
2021/03/09 04:14:22;;;;;;;45.25;25.75;;;;;;;7.12;50.26;102057.78;5054336;28;20025;-86
2021/03/09 04:16:53;;;;;;;44.72;25.10;;;;;;;6.44;52.35;102014.81;5053451;28;20025;-86
2021/03/09 04:19:22;;;;;;;39.50;24.88;;;;;;;5.99;52.77;101967.19;5051930;28;20128;-86
2021/03/09 04:21:50;;;;;;;44.88;24.35;;;;;;;6.53;53.10;102064.22;5052096;28;20029;-86
2021/03/09 04:24:19;;;;;;;39.05;23.80;;;;;;;7.01;51.84;102088.56;5052923;28;20033;-88
2021/03/09 04:26:46;;;;;;;45.60;23.73;;;;;;;6.22;53.09;102037.78;5056820;28;20029;-88
2021/03/09 04:29:16;;;;;;;42.03;23.80;;;;;;;7.35;53.28;102155.94;5054433;28;20036;-87
2021/03/09 04:31:43;;;;;;;43.58;24.55;;;;;;;6.39;53.90;101981.53;5052407;28;20028;-87
2021/03/09 04:34:12;;;;;;;39.13;23.13;;;;;;;6.22;54.32;101982.75;5052058;28;20478;-86
2021/03/09 04:36:42;;;;;;;42.40;24.70;;;;;;;6.68;52.60;101993.53;5052165;28;20036;-87
2021/03/09 04:39:10;;;;;;;43.10;24.88;;;;;;;7.08;53.00;102105.19;5051901;28;20033;-87
2021/03/09 04:41:38;;;;;;;41.03;24.02;;;;;;;7.50;53.18;102095.25;5051934;28;20477;-87
2021/03/09 04:44:05;;;;;;;37.78;22.75;;;;;;;7.24;52.95;102049.84;5051335;28;20025;-84
2021/03/09 04:46:33;;;;;;;43.92;23.45;;;;;;;7.30;54.35;102105.22;5052289;28;20116;-87
2021/03/09 04:49:00;;;;;;;46.65;25.67;;;;;;;7.45;55.51;102094.16;5052409;28;20040;-86
2021/03/09 04:51:27;;;;;;;48.72;26.52;;;;;;;7.45;55.61;102067.47;5052439;28;20385;-86
2021/03/09 04:53:55;;;;;;;46.63;26.88;;;;;;;6.60;56.88;102004.63;5053071;28;20025;-87
2021/03/09 04:56:22;;;;;;;40.60;24.17;;;;;;;6.69;53.98;101945.69;5052387;28;20027;-86
2021/03/09 04:58:49;;;;;;;51.50;25.80;;;;;;;7.05;52.21;101988.00;5039777;28;20485;-85
2021/03/09 05:01:16;;;;;;;40.80;24.50;;;;;;;6.69;53.85;101962.22;5054812;28;20025;-86
2021/03/09 05:03:43;;;;;;;45.33;23.20;;;;;;;7.94;52.41;102122.81;5054986;28;20021;-85
2021/03/09 05:06:10;;;;;;;44.33;24.65;;;;;;;8.25;50.45;102127.09;5052275;28;20082;-86
2021/03/09 05:08:37;;;;;;;35.63;21.55;;;;;;;6.96;50.25;101912.09;5053031;28;20032;-86
2021/03/09 05:11:04;;;;;;;39.83;22.23;;;;;;;6.50;50.95;101874.78;5054123;28;20032;-86
2021/03/09 05:13:31;;;;;;;37.95;20.90;;;;;;;7.81;48.21;102102.34;5054659;28;20029;-87
2021/03/09 05:15:58;;;;;;;37.45;21.20;;;;;;;7.19;49.61;102011.03;5055594;28;20033;-85
2021/03/09 05:18:25;;;;;;;33.58;19.90;;;;;;;6.57;50.91;101908.72;5053629;28;20049;-87
2021/03/09 05:20:52;;;;;;;34.65;21.15;;;;;;;7.24;49.47;101939.66;5054392;28;20028;-87
2021/03/09 05:23:19;;;;;;;44.42;21.40;;;;;;;7.50;49.10;102037.38;5055794;28;20029;-87
2021/03/09 05:25:46;;;;;;;37.60;21.42;;;;;;;7.34;48.60;101963.25;5055689;28;20025;-86
2021/03/09 05:28:13;;;;;;;44.85;23.33;;;;;;;7.28;51.30;101997.09;5053379;28;20457;-87
2021/03/09 05:30:40;;;;;;;33.25;21.40;;;;;;;7.65;52.91;102061.25;5053100;28;20029;-86
2021/03/09 05:33:07;;;;;;;45.00;24.17;;;;;;;7.08;53.34;101946.28;5052489;28;20468;-86
2021/03/09 05:35:34;;;;;;;41.65;23.23;;;;;;;7.72;52.64;101986.91;5071369;28;20037;-87
2021/03/09 05:38:01;;;;;;;41.35;23.23;;;;;;;7.78;52.12;102020.03;5072609;28;20079;-86
2021/03/09 05:40:28;;;;;;;38.10;24.33;;;;;;;7.79;49.83;101955.56;5074016;28;20055;-86
2021/03/09 05:42:55;;;;;;;36.25;21.85;;;;;;;8.51;50.31;102077.81;5075049;28;20096;-86
2021/03/09 05:45:24;;;;;;;41.83;21.08;;;;;;;8.39;47.14;102085.81;5085009;28;20595;-86
2021/03/09 05:47:52;;;;;;;37.75;20.45;;;;;;;7.37;46.22;102001.47;5072402;28;20044;-86
2021/03/09 05:50:19;;;;;;;37.92;20.95;;;;;;;8.14;47.08;102078.00;5064372;28;20407;-86
2021/03/09 05:52:46;;;;;;;46.08;22.75;;;;;;;7.34;47.81;101916.44;5050522;28;20478;-87
2021/03/09 05:55:14;;;;;;;40.67;21.10;;;;;;;7.52;48.34;101900.25;5049682;28;20084;-85
2021/03/09 05:57:41;;;;;;;45.47;23.20;;;;;;;8.42;48.71;101991.56;5050107;28;20558;-87
2021/03/09 06:00:10;;;;;;;39.90;21.08;;;;;;;8.15;47.66;101969.34;5051092;28;20091;-86
2021/03/09 06:02:38;;;;;;;35.53;21.80;;;;;;;7.50;48.90;101924.38;5054529;28;20025;-86
2021/03/09 06:05:07;;;;;;;32.80;16.63;;;;;;;7.49;44.48;101944.75;5055899;28;20028;-86
2021/03/09 06:07:37;;;;;;;31.55;18.05;;;;;;;8.11;42.18;102073.75;5053984;28;20410;-86
2021/03/09 06:10:06;;;;;;;29.08;18.00;;;;;;;7.04;44.39;101928.47;5054555;28;20021;-88
2021/03/09 06:12:33;;;;;;;27.73;18.08;;;;;;;7.53;45.30;102028.75;5055243;28;20438;-84
2021/03/09 06:15:04;;;;;;;32.72;18.85;;;;;;;7.38;44.19;101981.13;5054636;28;20021;-85
2021/03/09 06:17:39;;;;;;;33.33;18.67;;;;;;;7.31;49.72;102091.25;5054319;28;20025;-87
2021/03/09 06:20:18;;;;;;;32.70;19.88;;;;;;;7.19;50.48;102090.06;5053771;28;20135;-86
2021/03/09 06:22:47;;;;;;;36.03;20.15;;;;;;;6.57;50.75;101952.75;5054583;28;20020;-87
2021/03/09 06:25:17;;;;;;;41.47;21.63;;;;;;;6.01;52.77;101915.63;5055717;28;20058;-87
2021/03/09 06:27:44;;;;;;;37.35;20.85;;;;;;;6.40;55.00;102015.38;5059088;28;20099;-87
2021/03/09 06:30:15;;;;;;;37.10;19.55;;;;;;;6.33;56.02;101993.31;5057590;28;20105;-87
2021/03/09 06:32:43;;;;;;;;;;;;;;;6.96;55.61;102100.16;5055478;28;20377;-85
2021/03/09 06:35:29;;;;;;;38.80;21.90;;;;;;;6.84;57.32;102068.69;5054236;28;20391;-87
2021/03/09 06:38:16;;;;;;;40.38;25.05;;;;;;;6.19;58.67;102021.66;5047898;28;20044;-87
2021/03/09 06:40:45;;;;;;;37.25;22.75;;;;;;;6.77;57.26;102095.28;5053666;28;20060;-88
2021/03/09 06:43:17;;;;;;;40.13;22.45;;;;;;;6.56;56.38;102039.94;5053920;28;20109;-85
2021/03/09 06:45:45;;;;;;;39.00;20.83;;;;;;;5.88;54.55;101944.63;5054565;28;20033;-87
2021/03/09 06:48:22;;;;;;;39.55;23.05;;;;;;;6.22;55.97;102002.88;5055613;28;20029;-87
2021/03/09 06:50:49;;;;;;;34.08;20.48;;;;;;;6.69;55.84;102072.31;5053023;28;20047;-88
2021/03/09 06:53:27;;;;;;;36.92;20.73;;;;;;;5.73;54.36;101853.09;5053222;28;20047;-87
2021/03/09 06:55:54;;;;;;;44.28;21.13;;;;;;;5.96;52.80;101920.84;5054479;28;20021;-86
2021/03/09 06:58:29;;;;;;;34.20;19.48;;;;;;;6.49;52.75;102032.66;5053097;28;20021;-84
2021/03/09 07:01:13;;;;;;;35.55;19.05;;;;;;;6.48;49.83;101976.75;5053482;28;20497;-85
2021/03/09 07:03:40;;;;;;;36.72;21.08;;;;;;;7.06;49.62;102105.38;5053090;28;20013;-88
2021/03/09 07:06:07;;;;;;;34.35;18.77;;;;;;;7.15;49.22;102113.53;5053013;28;20037;-86
2021/03/09 07:08:34;;;;;;;40.45;20.75;;;;;;;6.27;49.00;101941.81;5053497;28;20025;-86
2021/03/09 07:11:01;;;;;;;33.90;20.42;;;;;;;6.08;49.80;101938.63;5052473;28;20029;-84
2021/03/09 07:13:29;;;;;;;36.88;21.55;;;;;;;6.42;51.43;102033.41;5058285;28;20019;-85
2021/03/09 07:15:57;;;;;;;35.40;19.13;;;;;;;7.20;51.84;102133.91;5065146;28;20029;-84
2021/03/09 07:18:26;;;;;;;39.30;20.88;;;;;;;6.02;51.73;101909.13;5061328;28;20051;-86
2021/03/09 07:20:55;;;;;;;34.47;21.10;;;;;;;6.33;52.70;101941.03;5052903;28;20029;-86
2021/03/09 07:23:31;;;;;;;37.50;20.35;;;;;;;6.19;54.22;101994.16;5059481;28;20477;-85
2021/03/09 07:26:09;;;;;;;39.00;20.58;;;;;;;6.52;52.98;102033.13;5063300;28;20437;-83
2021/03/09 07:28:41;;;;;;;39.10;19.42;;;;;;;6.75;51.03;102023.03;5052875;28;20033;-84
2021/03/09 07:31:13;;;;;;;35.13;19.23;;;;;;;6.48;53.42;102047.47;5063850;28;20029;-83
2021/03/09 07:33:41;;;;;;;36.08;20.77;;;;;;;6.00;52.60;101991.75;5063157;28;20047;-83
2021/03/09 07:36:08;;;;;;;46.90;21.83;;;;;;;6.22;52.25;102022.13;5061025;28;20041;-85
2021/03/09 07:38:39;;;;;;;29.75;16.02;;;;;;;6.01;49.50;101945.88;5051534;28;20091;-83
2021/03/09 07:41:08;;;;;;;30.27;17.48;;;;;;;6.35;50.46;102037.97;5052189;28;20150;-85
2021/03/09 07:43:36;;;;;;;29.13;15.15;;;;;;;5.85;46.07;102013.75;5051470;28;20029;-84
2021/03/09 07:46:06;;;;;;;29.33;14.40;;;;;;;5.58;43.80;101911.66;5051400;28;20108;-86
2021/03/09 07:48:32;;;;;;;;;;;;;;;6.68;45.46;102136.66;5052793;28;20039;-85
2021/03/09 07:51:04;;;;;;;25.95;15.90;;;;;;;6.49;45.91;102054.66;5050810;28;20293;-87
2021/03/09 07:53:32;;;;;;;38.63;17.73;;;;;;;6.11;47.58;102014.34;5059898;28;20135;-86
2021/03/09 07:56:04;;;;;;;29.20;15.63;;;;;;;6.51;49.40;102130.47;5053861;28;20064;-84
2021/03/09 07:58:32;;;;;;;25.73;14.68;;;;;;;6.64;47.76;102135.31;5050557;28;20021;-84
2021/03/09 08:01:04;;;;;;;29.60;14.98;;;;;;;6.37;46.03;102151.41;5055936;28;20021;-86
2021/03/09 08:03:36;;;;;;;20.98;12.32;;;;;;;5.82;47.86;102047.09;5054924;28;20063;-86
2021/03/09 08:06:09;;;;;;;26.08;14.60;;;;;;;5.73;50.49;102039.97;5054393;28;20028;-85
2021/03/09 08:08:50;;;;;;;18.88;12.95;;;;;;;6.21;50.22;102135.06;5051197;28;20493;-86
2021/03/09 08:11:20;;;;;;;31.15;13.60;;;;;;;6.22;50.54;102142.28;5052739;28;20028;-85
2021/03/09 08:13:49;;;;;;;25.60;14.55;;;;;;;4.95;49.85;101933.84;5051373;28;20013;-87
2021/03/09 08:16:50;;;;;;;21.83;13.63;;;;;;;6.41;49.24;102141.75;5051426;28;20432;-86
2021/03/09 08:19:26;;;;;;;23.38;12.15;;;;;;;6.50;49.70;102139.78;5050756;28;20076;-85
2021/03/09 08:22:01;;;;;;;22.05;13.77;;;;;;;6.75;48.64;102149.63;5051089;28;20047;-84
2021/03/09 08:24:43;;;;;;;25.17;14.55;;;;;;;6.64;50.38;102142.72;5042617;28;20489;-85
2021/03/09 08:27:29;;;;;;;18.65;13.60;;;;;;;6.78;51.40;102147.38;5049932;28;20060;-84
2021/03/09 08:30:08;;;;;;;25.63;15.20;;;;;;;6.62;52.60;102147.56;5051930;28;20885;-85
2021/03/09 08:32:35;;;;;;;27.38;15.30;;;;;;;6.47;53.49;102164.06;5049421;28;20478;-86
2021/03/09 08:35:15;;;;;;;27.33;15.70;;;;;;;6.33;55.06;102150.09;5051086;28;20033;-85
2021/03/09 08:37:50;;;;;;;29.58;16.98;;;;;;;6.12;55.05;102099.41;5050967;28;20035;-84
2021/03/09 08:40:20;;;;;;;38.30;19.17;;;;;;;5.23;55.56;101990.09;5050502;28;20052;-87
2021/03/09 08:43:02;;;;;;;27.17;18.40;;;;;;;5.83;57.21;102150.47;5050876;28;20125;-84
2021/03/09 08:45:43;;;;;;;30.52;18.60;;;;;;;5.24;57.16;102053.06;5060865;28;20031;-86
2021/03/09 08:48:12;;;;;;;29.20;16.52;;;;;;;5.05;56.99;101997.59;5060359;28;20033;-85
2021/03/09 08:50:47;;;;;;;35.33;19.58;;;;;;;4.92;57.16;101994.56;5054621;28;20064;-84
2021/03/09 08:53:33;;;;;;;27.67;17.63;;;;;;;5.96;58.21;102160.03;5053748;28;20562;-84
2021/03/09 08:56:06;;;;;;;32.83;19.58;;;;;;;5.97;58.79;102178.22;5055561;28;20037;-83
2021/03/09 08:58:40;;;;;;;28.85;17.38;;;;;;;5.73;59.23;102150.75;5054071;28;20036;-85
2021/03/09 09:01:08;;;;;;;25.83;15.98;;;;;;;5.04;60.59;102071.88;5055538;28;20465;-84
2021/03/09 09:03:36;;;;;;;34.35;18.40;;;;;;;4.75;60.39;101986.44;5053521;28;20023;-84
2021/03/09 09:06:04;;;;;;;33.90;19.23;;;;;;;5.24;60.67;102064.06;5058906;28;20021;-83
2021/03/09 09:08:32;;;;;;;29.13;18.35;;;;;;;5.88;61.09;102163.69;5076421;28;20501;-87
2021/03/09 09:11:00;;;;;;;37.95;21.52;;;;;;;4.76;61.35;101990.06;5059330;28;20100;-85
2021/03/09 09:13:32;;;;;;;30.33;19.50;;;;;;;5.05;61.27;102004.97;5050945;28;20024;-86
2021/03/09 09:16:00;;;;;;;34.15;19.77;;;;;;;4.71;61.19;101949.47;5046739;28;20017;-82
2021/03/09 09:18:28;;;;;;;36.13;20.92;;;;;;;5.75;60.95;102084.59;5048003;28;20076;-85
2021/03/09 09:20:55;;;;;;;31.85;19.88;;;;;;;5.37;61.42;102007.63;5048621;28;20037;-83
2021/03/09 09:23:27;;;;;;;43.95;20.88;;;;;;;5.67;63.89;102095.66;5049406;28;20037;-84
2021/03/09 09:26:00;;;;;;;38.53;21.42;;;;;;;5.81;65.08;102169.06;5048120;28;20033;-85
2021/03/09 09:28:35;;;;;;;33.50;22.77;;;;;;;4.40;65.48;101924.78;5051977;28;20788;-85
2021/03/09 09:31:16;;;;;;;36.38;22.13;;;;;;;4.42;64.85;101915.34;5049227;28;20086;-85
2021/03/09 09:33:54;;;;;;;36.38;22.80;;;;;;;6.10;65.62;102181.25;5048226;28;20037;-82
2021/03/09 09:36:23;;;;;;;36.60;22.80;;;;;;;4.65;65.82;101929.06;5051221;28;20032;-83
2021/03/09 09:38:54;;;;;;;39.95;24.08;;;;;;;5.70;65.55;102120.88;5053723;28;20044;-82
2021/03/09 09:41:22;;;;;;;34.40;23.05;;;;;;;6.17;66.00;102186.84;5049542;28;20040;-82
2021/03/09 09:43:50;;;;;;;38.35;23.73;;;;;;;5.66;65.53;102126.94;5051584;28;20474;-82
2021/03/09 09:46:27;;;;;;;35.85;22.02;;;;;;;4.96;67.61;102056.31;5048565;28;20087;-82
2021/03/09 09:48:55;;;;;;;42.55;26.25;;;;;;;5.48;67.61;102130.84;5050958;28;20090;-81
2021/03/09 09:51:25;;;;;;;36.00;24.55;;;;;;;5.53;70.05;102209.97;5048462;28;20029;-84
2021/03/09 09:53:53;;;;;;;30.23;19.30;;;;;;;4.50;70.69;102074.38;5052407;28;20539;-81
2021/03/09 09:56:20;;;;;;;38.22;24.35;;;;;;;5.09;72.43;102214.09;5050637;28;20440;-83
2021/03/09 09:58:56;;;;;;;41.67;25.33;;;;;;;4.43;72.38;102099.91;5068768;28;20028;-83
2021/03/09 10:01:42;;;;;;;37.97;27.67;;;;;;;4.38;73.47;102104.06;5057768;28;20028;-86
2021/03/09 10:04:16;;;;;;;46.80;26.40;;;;;;;4.73;74.23;102161.38;5050889;28;20119;-82
2021/03/09 10:06:51;;;;;;;37.92;26.42;;;;;;;4.92;74.53;102182.09;5049560;28;20029;-84
2021/03/09 10:09:25;;;;;;;51.35;29.00;;;;;;;4.44;74.32;102121.69;5053837;28;20056;-82
2021/03/09 10:11:58;;;;;;;47.88;29.75;;;;;;;4.84;74.78;102190.34;5053545;28;20126;-86
2021/03/09 10:14:27;;;;;;;48.78;29.40;;;;;;;4.56;75.56;102159.72;5047673;28;20040;-89
2021/03/09 10:16:55;;;;;;;38.63;23.05;;;;;;;4.42;75.91;102125.63;5055591;28;20025;-85
2021/03/09 10:19:24;;;;;;;50.30;31.67;;;;;;;3.99;76.48;102082.03;5054595;28;20558;-81
2021/03/09 10:21:55;;;;;;;57.42;32.88;;;;;;;3.39;76.70;101972.69;5053713;28;20040;-86
2021/03/09 10:24:31;;;;;;;45.50;30.05;;;;;;;4.34;76.63;102123.78;5053133;28;20098;-79
2021/03/09 10:27:00;;;;;;;55.70;32.78;;;;;;;5.04;76.87;102248.44;5052323;28;20033;-78
2021/03/09 10:29:31;;;;;;;49.08;31.20;;;;;;;4.89;77.33;102209.03;5053141;28;20025;-82
2021/03/09 10:32:04;;;;;;;52.13;33.38;;;;;;;5.14;77.18;102245.50;5052511;28;20029;-81
2021/03/09 10:34:39;;;;;;;49.70;29.73;;;;;;;4.80;78.23;102221.91;5051447;28;20488;-78
2021/03/09 10:37:09;;;;;;;55.30;34.83;;;;;;;5.18;77.97;102262.47;5050987;28;20029;-80
2021/03/09 10:39:39;;;;;;;55.00;33.47;;;;;;;4.36;78.55;102160.09;5052452;28;20485;-80
2021/03/09 10:42:25;;;;;;;63.35;34.00;;;;;;;4.98;79.21;102267.50;5052267;28;20029;-80
2021/03/09 10:44:53;;;;;;;52.83;37.20;;;;;;;4.11;78.98;102124.50;5051386;28;20057;-78
2021/03/09 10:47:21;;;;;;;55.75;34.10;;;;;;;4.99;79.46;102275.53;5048004;28;20036;-85
2021/03/09 10:49:48;;;;;;;50.65;34.08;;;;;;;5.15;79.09;102269.16;5037103;28;20071;-86
2021/03/09 10:52:15;;;;;;;54.17;33.70;;;;;;;4.40;79.67;102177.91;5020653;28;20034;-84
2021/03/09 10:54:42;;;;;;;56.28;33.92;;;;;;;5.07;79.36;102286.50;5017162;28;20026;-83
2021/03/09 10:57:10;;;;;;;50.53;34.85;;;;;;;4.48;79.80;102207.22;5012369;28;20029;-84
2021/03/09 10:59:39;;;;;;;55.72;35.55;;;;;;;4.36;79.79;102168.31;5017129;28;20642;-83
2021/03/09 11:02:07;;;;;;;51.78;33.67;;;;;;;4.47;81.14;102222.81;5010939;28;20033;-83
2021/03/09 11:04:34;;;;;;;56.25;35.35;;;;;;;4.86;81.22;102275.22;5012743;28;20026;-84
2021/03/09 11:07:02;;;;;;;50.78;33.72;;;;;;;4.09;81.68;102160.31;5013310;28;20021;-84
2021/03/09 11:09:29;;;;;;;55.33;32.05;;;;;;;4.52;82.22;102242.34;5004089;28;20403;-83
2021/03/09 11:11:56;;;;;;;58.65;33.22;;;;;;;4.41;81.85;102206.19;5010764;28;20036;-81
2021/03/09 11:14:23;;;;;;;54.22;32.17;;;;;;;4.07;81.84;102126.72;5010410;28;20053;-83
2021/03/09 11:16:50;;;;;;;58.55;35.00;;;;;;;3.83;81.61;102087.34;5011490;28;20112;-84
2021/03/09 11:19:17;;;;;;;52.97;32.70;;;;;;;4.65;81.34;102246.47;5007576;28;20081;-82
2021/03/09 11:21:44;;;;;;;53.85;33.30;;;;;;;5.08;81.37;102290.13;5012758;28;20401;-82
2021/03/09 11:24:11;;;;;;;65.00;37.83;;;;;;;4.09;81.52;102153.94;5006055;28;20205;-84
2021/03/09 11:26:38;;;;;;;54.13;34.40;;;;;;;4.25;82.63;102207.94;5020128;28;20022;-84
2021/03/09 11:29:06;;;;;;;59.97;38.42;;;;;;;4.29;83.12;102216.66;5012488;28;20030;-84
2021/03/09 11:31:34;;;;;;;58.97;36.35;;;;;;;4.36;83.86;102248.69;5012548;28;20022;-83